createdAt,value
2017-09-22T00:02:23.949Z,10.17
2017-09-22T00:04:54.850Z,12.00
2017-09-22T00:07:26.268Z,12.27
2017-09-22T00:09:56.773Z,10.57
2017-09-22T00:12:27.300Z,10.80
2017-09-22T00:14:57.996Z,13.63
2017-09-22T00:17:39.726Z,10.00
2017-09-22T00:20:11.181Z,9.90
2017-09-22T00:22:41.832Z,10.63
2017-09-22T00:25:12.609Z,10.27
2017-09-22T00:27:47.523Z,10.10
2017-09-22T00:30:19.173Z,13.33
2017-09-22T00:32:50.923Z,13.10
2017-09-22T00:35:22.340Z,12.40
2017-09-22T00:37:53.022Z,17.60
2017-09-22T00:40:23.740Z,11.83
2017-09-22T00:42:55.131Z,10.27
2017-09-22T00:45:26.001Z,8.90
2017-09-22T00:47:57.709Z,10.80
2017-09-22T00:50:28.820Z,9.80
2017-09-22T00:53:02.272Z,11.80
2017-09-22T00:55:33.377Z,10.77
2017-09-22T00:58:04.422Z,12.53
2017-09-22T01:00:37.069Z,12.70
2017-09-22T01:03:08.974Z,11.27
2017-09-22T01:05:39.946Z,10.13
2017-09-22T01:08:11.144Z,13.37
2017-09-22T01:10:42.808Z,20.13
2017-09-22T01:13:14.007Z,17.90
2017-09-22T01:15:45.896Z,19.10
2017-09-22T01:18:17.022Z,16.97
2017-09-22T01:20:48.019Z,12.20
2017-09-22T01:23:20.289Z,11.23
2017-09-22T01:25:51.243Z,10.50
2017-09-22T01:28:25.736Z,11.60
2017-09-22T01:30:56.540Z,13.43
2017-09-22T01:33:27.738Z,12.70
2017-09-22T01:35:58.930Z,19.10
2017-09-22T01:38:30.414Z,18.73
2017-09-22T01:41:01.495Z,13.00
2017-09-22T01:43:36.666Z,9.20
2017-09-22T01:46:13.361Z,10.50
2017-09-22T01:48:45.463Z,10.77
2017-09-22T01:51:17.275Z,11.30
2017-09-22T01:53:49.234Z,15.83
2017-09-22T01:56:24.033Z,14.67
2017-09-22T01:58:55.888Z,14.57
2017-09-22T02:01:27.785Z,14.97
2017-09-22T02:04:01.496Z,14.27
2017-09-22T02:06:34.443Z,16.30
2017-09-22T02:09:10.604Z,16.50
2017-09-22T02:11:43.489Z,13.90
2017-09-22T02:14:19.097Z,12.67
2017-09-22T02:16:55.755Z,17.17
2017-09-22T02:19:27.951Z,13.60
2017-09-22T02:22:00.105Z,13.70
2017-09-22T02:24:32.174Z,12.60
2017-09-22T02:27:04.000Z,14.70
2017-09-22T02:29:37.543Z,12.63
2017-09-22T02:32:08.845Z,11.53
2017-09-22T02:34:44.893Z,12.80
2017-09-22T02:37:22.932Z,13.00
2017-09-22T02:39:56.101Z,12.17
2017-09-22T02:42:29.422Z,11.77
2017-09-22T02:45:03.760Z,12.37
2017-09-22T02:47:38.739Z,10.80
2017-09-22T02:50:09.750Z,11.00
2017-09-22T02:52:41.020Z,13.50
2017-09-22T02:55:13.034Z,14.57
2017-09-22T02:57:45.290Z,13.53
2017-09-22T03:00:16.764Z,17.07
2017-09-22T03:02:56.021Z,22.00
2017-09-22T03:05:37.423Z,19.90
2017-09-22T03:08:13.538Z,18.80
2017-09-22T03:10:44.872Z,15.37
2017-09-22T03:13:15.976Z,11.80
2017-09-22T03:15:47.445Z,10.97
2017-09-22T03:18:19.346Z,15.30
2017-09-22T03:23:36.527Z,14.33
2017-09-22T03:26:10.060Z,13.43
2017-09-22T03:28:43.864Z,14.07
2017-09-22T03:31:20.004Z,12.77
2017-09-22T03:33:57.701Z,12.47
2017-09-22T03:36:34.431Z,11.33
2017-09-22T03:39:11.178Z,11.87
2017-09-22T03:41:41.852Z,11.80
2017-09-22T03:44:13.648Z,12.20
2017-09-22T03:46:45.307Z,12.37
2017-09-22T03:49:16.737Z,13.33
2017-09-22T03:51:48.025Z,12.10
2017-09-22T03:54:20.343Z,15.03
2017-09-22T03:56:51.475Z,12.90
2017-09-22T03:59:23.519Z,11.00
2017-09-22T04:01:54.493Z,15.97
2017-09-22T04:04:25.842Z,19.97
2017-09-22T04:06:57.226Z,13.53
2017-09-22T04:09:29.001Z,13.37
2017-09-22T04:12:00.102Z,13.20
2017-09-22T04:14:31.882Z,13.67
2017-09-22T04:17:03.113Z,22.57
2017-09-22T04:19:34.772Z,17.63
2017-09-22T04:22:09.966Z,21.10
2017-09-22T04:24:41.957Z,15.23
2017-09-22T04:27:13.919Z,15.83
2017-09-22T04:29:45.138Z,13.97
2017-09-22T04:32:16.547Z,16.60
2017-09-22T04:34:47.826Z,16.50
2017-09-22T04:37:19.628Z,13.90
2017-09-22T04:39:51.175Z,14.90
2017-09-22T04:42:22.158Z,15.73
2017-09-22T04:44:54.800Z,17.57
2017-09-22T04:47:26.003Z,14.90
2017-09-22T04:49:57.324Z,18.10
2017-09-22T04:52:28.508Z,14.93
2017-09-22T04:54:59.549Z,14.20
2017-09-22T04:57:32.371Z,15.17
2017-09-22T05:00:03.993Z,14.53
2017-09-22T05:02:34.694Z,19.93
2017-09-22T05:05:06.633Z,13.67
2017-09-22T05:07:37.936Z,12.63
2017-09-22T05:10:09.335Z,15.47
2017-09-22T05:12:43.103Z,13.00
2017-09-22T05:15:14.131Z,12.27
2017-09-22T05:17:46.258Z,14.93
2017-09-22T05:20:18.753Z,15.33
2017-09-22T05:22:50.996Z,17.03
2017-09-22T05:25:22.040Z,18.00
2017-09-22T05:27:53.961Z,16.50
2017-09-22T05:30:25.557Z,17.87
2017-09-22T05:32:56.717Z,10.80
2017-09-22T05:35:27.752Z,11.90
2017-09-22T05:37:59.810Z,14.13
2017-09-22T05:40:32.498Z,13.00
2017-09-22T05:43:12.149Z,13.20
2017-09-22T05:45:43.015Z,13.07
2017-09-22T05:48:15.344Z,12.90
2017-09-22T05:50:46.850Z,15.60
2017-09-22T05:53:18.679Z,15.17
2017-09-22T05:55:49.668Z,15.70
2017-09-22T05:58:21.437Z,15.30
2017-09-22T06:00:53.329Z,16.47
2017-09-22T06:03:26.471Z,16.80
2017-09-22T06:05:58.311Z,16.33
2017-09-22T06:08:29.781Z,14.57
2017-09-22T06:11:01.256Z,13.17
2017-09-22T06:13:33.767Z,15.93
2017-09-22T06:16:05.495Z,16.47
2017-09-22T06:18:36.128Z,12.47
2017-09-22T06:21:06.692Z,13.47
2017-09-22T06:23:37.600Z,14.60
2017-09-22T06:26:09.091Z,15.83
2017-09-22T06:28:39.814Z,14.50
2017-09-22T06:31:10.531Z,32.60
2017-09-22T06:33:41.974Z,16.60
2017-09-22T06:36:13.165Z,16.50
2017-09-22T06:38:45.280Z,16.53
2017-09-22T06:41:17.436Z,16.40
2017-09-22T06:43:49.065Z,16.40
2017-09-22T06:46:20.042Z,15.90
2017-09-22T06:48:50.932Z,16.10
2017-09-22T06:51:22.433Z,15.60
2017-09-22T06:53:54.184Z,15.47
2017-09-22T06:56:24.875Z,16.80
2017-09-22T06:58:55.921Z,19.20
2017-09-22T07:01:27.351Z,22.07
2017-09-22T07:03:58.849Z,18.57
2017-09-22T07:06:30.008Z,15.50
2017-09-22T07:09:02.082Z,15.07
2017-09-22T07:11:34.064Z,15.23
2017-09-22T07:14:09.576Z,15.30
2017-09-22T07:16:41.531Z,14.83
2017-09-22T07:19:13.654Z,13.60
2017-09-22T07:21:45.385Z,13.40
2017-09-22T07:24:18.600Z,14.20
2017-09-22T07:26:50.094Z,13.83
2017-09-22T07:29:24.248Z,13.80
2017-09-22T07:31:55.402Z,13.50
2017-09-22T07:34:26.512Z,14.47
2017-09-22T07:36:59.513Z,14.33
2017-09-22T07:39:33.402Z,15.30
2017-09-22T07:42:06.523Z,16.17
2017-09-22T07:44:38.203Z,15.70
2017-09-22T07:47:09.917Z,14.90
2017-09-22T07:49:41.129Z,16.87
2017-09-22T07:52:13.001Z,18.63
2017-09-22T07:54:44.499Z,18.90
2017-09-22T07:57:16.692Z,19.00
2017-09-22T07:59:48.473Z,18.33
2017-09-22T08:02:20.803Z,19.67
2017-09-22T08:04:51.427Z,18.20
2017-09-22T08:07:23.062Z,19.60
2017-09-22T08:09:54.421Z,20.30
2017-09-22T08:12:26.641Z,19.67
2017-09-22T08:14:58.523Z,20.00
2017-09-22T08:17:31.251Z,23.63
2017-09-22T08:20:02.330Z,22.57
2017-09-22T08:22:35.934Z,23.40
2017-09-22T08:25:16.146Z,17.40
2017-09-22T08:27:50.048Z,18.13
2017-09-22T08:30:22.791Z,17.60
2017-09-22T08:32:53.675Z,19.83
2017-09-22T08:35:34.661Z,17.70
2017-09-22T08:38:12.238Z,23.50
2017-09-22T08:40:50.146Z,19.00
2017-09-22T08:43:21.434Z,19.30
2017-09-22T08:45:54.328Z,18.57
2017-09-22T08:48:28.401Z,21.30
2017-09-22T08:51:02.811Z,16.80
2017-09-22T08:53:53.527Z,17.50
2017-09-22T08:56:56.427Z,18.53
2017-09-22T08:59:45.333Z,19.57
2017-09-22T09:09:24.132Z,15.87
2017-09-22T09:20:06.508Z,16.70
2017-09-22T09:26:35.584Z,13.27
2017-09-22T09:29:08.249Z,12.47
2017-09-22T09:32:21.247Z,14.87
2017-09-22T09:46:26.185Z,14.87
2017-09-22T09:49:18.826Z,14.57
2017-09-22T09:55:10.370Z,12.03
2017-09-22T10:02:17.024Z,11.80
2017-09-22T10:05:02.678Z,11.70
2017-09-22T10:29:55.410Z,9.10
2017-09-22T10:50:14.697Z,10.17
2017-09-22T10:59:35.694Z,9.07
2017-09-22T11:02:15.622Z,9.17
2017-09-22T11:12:59.050Z,10.90
2017-09-22T11:20:33.407Z,12.20
2017-09-22T11:26:10.611Z,12.60
2017-09-22T11:28:44.154Z,12.30
2017-09-22T11:31:37.829Z,13.13
2017-09-22T11:34:21.030Z,13.33
2017-09-22T11:36:55.690Z,11.97
2017-09-22T11:40:03.808Z,10.00
2017-09-22T11:42:47.130Z,11.43
2017-09-22T11:45:28.270Z,10.40
2017-09-22T11:48:25.000Z,11.13
2017-09-22T12:02:51.078Z,12.10
2017-09-22T12:18:00.631Z,9.77
2017-09-22T12:21:10.346Z,9.20
2017-09-22T12:24:11.645Z,10.20
2017-09-22T12:35:28.425Z,9.43
2017-09-22T12:56:47.587Z,7.30
2017-09-22T13:03:19.830Z,6.73
2017-09-22T13:08:44.098Z,6.87
2017-09-22T13:15:01.519Z,6.17
2017-09-22T13:21:49.592Z,6.43
2017-09-22T13:24:21.550Z,6.17
2017-09-22T13:35:54.877Z,7.13
2017-09-22T13:38:49.051Z,7.63
2017-09-22T13:41:28.693Z,7.40
2017-09-22T13:44:04.921Z,8.97
2017-09-22T13:47:04.328Z,7.83
2017-09-22T13:49:35.902Z,9.50
2017-09-22T13:52:39.391Z,7.90
2017-09-22T14:07:17.589Z,9.43
2017-09-22T14:16:30.434Z,7.30
2017-09-22T14:23:07.948Z,8.90
2017-09-22T14:25:39.838Z,8.30
2017-09-22T14:28:46.674Z,9.63
2017-09-22T14:35:03.801Z,8.20
2017-09-22T14:37:35.446Z,8.10
2017-09-22T14:40:07.150Z,8.70
2017-09-22T14:43:32.322Z,8.43
2017-09-22T14:46:05.366Z,9.10
2017-09-22T14:48:37.921Z,8.17
2017-09-22T14:51:29.995Z,8.13
2017-09-22T14:54:01.760Z,8.63
2017-09-22T14:56:32.907Z,9.30
2017-09-22T14:59:06.464Z,9.70
2017-09-22T15:02:13.761Z,9.57
2017-09-22T15:04:45.946Z,8.80
2017-09-22T15:07:17.491Z,7.70
2017-09-22T15:09:49.997Z,8.93
2017-09-22T15:12:21.910Z,8.20
2017-09-22T15:14:55.632Z,9.20
2017-09-22T15:17:28.716Z,7.50
2017-09-22T15:20:00.717Z,7.70
2017-09-22T15:22:32.217Z,8.17
2017-09-22T15:25:04.187Z,7.27
2017-09-22T15:27:36.352Z,7.57
2017-09-22T15:30:54.122Z,6.90
2017-09-22T15:33:27.740Z,11.37
2017-09-22T15:35:58.579Z,12.23
2017-09-22T15:38:30.874Z,11.80
2017-09-22T15:43:28.668Z,12.23
2017-09-22T15:45:59.483Z,11.13
2017-09-22T15:48:33.491Z,16.67
2017-09-22T15:51:05.137Z,17.53
2017-09-22T15:53:37.124Z,17.40
2017-09-22T15:56:21.256Z,16.47
2017-09-22T15:59:15.705Z,14.50
2017-09-22T16:01:53.603Z,20.03
2017-09-22T16:04:26.018Z,20.10
2017-09-22T16:06:57.325Z,18.17
2017-09-22T16:09:31.248Z,20.77
2017-09-22T16:12:03.264Z,17.30
2017-09-22T16:14:36.076Z,17.73
2017-09-22T16:17:08.127Z,16.87
2017-09-22T16:19:39.393Z,18.17
2017-09-22T16:22:13.171Z,16.63
2017-09-22T16:24:45.266Z,18.73
2017-09-22T16:27:18.158Z,17.57
2017-09-22T16:29:50.489Z,15.73
2017-09-22T16:32:22.174Z,13.80
2017-09-22T16:34:54.864Z,11.93
2017-09-22T16:37:26.977Z,12.87
2017-09-22T16:39:59.434Z,11.63
2017-09-22T16:42:32.168Z,10.80
2017-09-22T16:45:06.416Z,11.20
2017-09-22T16:47:37.981Z,13.00
2017-09-22T16:50:14.175Z,10.87
2017-09-22T16:52:49.776Z,11.53
2017-09-22T16:55:23.157Z,10.30
2017-09-22T16:57:57.478Z,9.47
2017-09-22T17:00:30.609Z,10.10
2017-09-22T17:03:02.080Z,10.23
2017-09-22T17:05:33.931Z,10.13
2017-09-22T17:08:26.450Z,10.20
2017-09-22T17:10:58.485Z,10.07
2017-09-22T17:13:38.759Z,8.93
2017-09-22T17:16:14.481Z,10.00
2017-09-22T17:18:46.096Z,9.83
2017-09-22T17:21:16.903Z,8.70
2017-09-22T17:23:49.584Z,9.53
2017-09-22T17:26:20.464Z,9.90
2017-09-22T17:28:51.489Z,9.20
2017-09-22T17:31:22.174Z,10.10
2017-09-22T17:33:53.223Z,10.00
2017-09-22T17:36:24.607Z,11.30
2017-09-22T17:39:00.236Z,9.50
2017-09-22T17:41:31.912Z,8.63
2017-09-22T17:44:12.705Z,8.43
2017-09-22T17:46:45.790Z,10.47
2017-09-22T17:49:17.667Z,11.27
2017-09-22T17:51:49.707Z,9.87
2017-09-22T17:54:22.307Z,8.60
2017-09-22T17:56:55.526Z,8.80
2017-09-22T17:59:26.974Z,8.80
2017-09-22T18:01:58.804Z,10.70
2017-09-22T18:04:30.403Z,10.40
2017-09-22T18:07:02.653Z,8.70
2017-09-22T18:09:33.685Z,9.30
2017-09-22T18:12:03.945Z,9.47
2017-09-22T18:14:35.563Z,9.40
2017-09-22T18:17:08.385Z,10.13
2017-09-22T18:19:43.054Z,9.90
2017-09-22T18:22:20.067Z,9.83
2017-09-22T18:24:53.048Z,9.30
2017-09-22T18:27:30.658Z,9.70
2017-09-22T18:30:03.803Z,11.30
2017-09-22T18:32:37.977Z,8.90
2017-09-22T18:35:09.423Z,7.90
2017-09-22T18:37:41.537Z,8.00
2017-09-22T18:40:15.859Z,9.03
2017-09-22T18:42:47.178Z,9.10
2017-09-22T18:45:23.012Z,13.63
2017-09-22T18:48:09.130Z,13.43
2017-09-22T18:50:41.615Z,12.67
2017-09-22T18:53:12.738Z,12.10
2017-09-22T18:55:44.585Z,17.73
2017-09-22T18:58:23.686Z,17.47
2017-09-22T19:00:55.982Z,17.57
2017-09-22T19:03:27.907Z,13.90
2017-09-22T19:06:00.118Z,13.43
2017-09-22T19:08:33.974Z,10.83
2017-09-22T19:11:06.294Z,12.93
2017-09-22T19:13:38.307Z,11.33
2017-09-22T19:16:09.318Z,10.23
2017-09-22T19:18:44.398Z,11.77
2017-09-22T19:21:17.438Z,10.93
2017-09-22T19:23:50.057Z,12.47
2017-09-22T19:26:21.132Z,12.50
2017-09-22T19:29:08.775Z,12.83
2017-09-22T19:31:46.948Z,12.33
2017-09-22T19:34:21.523Z,13.20
2017-09-22T19:36:57.109Z,11.50
2017-09-22T19:39:30.921Z,10.90
2017-09-22T19:42:03.042Z,10.80
2017-09-22T19:44:38.778Z,10.03
2017-09-22T19:47:11.988Z,13.23
2017-09-22T19:49:43.527Z,13.80
2017-09-22T19:52:15.107Z,15.10
2017-09-22T19:54:49.523Z,14.93
2017-09-22T19:57:21.044Z,14.50
2017-09-22T19:59:54.975Z,13.07
2017-09-22T20:02:26.568Z,13.43
2017-09-22T20:04:59.536Z,11.97
2017-09-22T20:07:38.057Z,14.20
2017-09-22T20:10:21.405Z,12.63
2017-09-22T20:12:59.780Z,11.60
2017-09-22T20:15:34.381Z,9.87
2017-09-22T20:18:10.718Z,11.40
2017-09-22T20:20:43.871Z,12.70
2017-09-22T20:23:30.161Z,12.23
2017-09-22T20:26:06.869Z,13.37
2017-09-22T20:28:53.428Z,13.10
2017-09-22T20:31:25.218Z,10.93
2017-09-22T20:33:58.192Z,10.87
2017-09-22T20:36:31.241Z,10.53
2017-09-22T20:39:05.701Z,12.30
2017-09-22T20:41:47.590Z,10.80
2017-09-22T20:44:19.104Z,12.13
2017-09-22T20:46:53.666Z,11.33
2017-09-22T20:49:29.447Z,11.00
2017-09-22T20:52:06.179Z,11.20
2017-09-22T20:54:37.841Z,10.30
2017-09-22T20:57:08.986Z,10.53
2017-09-22T20:59:41.064Z,12.80
2017-09-22T21:02:12.416Z,12.80
2017-09-22T21:04:43.135Z,11.60
2017-09-22T21:07:15.645Z,11.77
2017-09-22T21:09:47.227Z,10.53
2017-09-22T21:12:19.135Z,10.83
2017-09-22T21:14:50.619Z,10.33
2017-09-22T21:17:22.478Z,8.40
2017-09-22T21:19:54.806Z,8.50
2017-09-22T21:22:26.719Z,8.50
2017-09-22T21:25:16.383Z,10.70
2017-09-22T21:27:53.532Z,10.33
2017-09-22T21:30:26.343Z,12.10
2017-09-22T21:32:58.986Z,12.80
2017-09-22T21:35:29.604Z,9.77
2017-09-22T21:38:00.227Z,10.00
2017-09-22T21:40:37.111Z,9.27
2017-09-22T21:43:09.621Z,9.10
2017-09-22T21:45:43.641Z,10.80
2017-09-22T21:48:14.997Z,10.17
2017-09-22T21:50:46.991Z,10.20
2017-09-22T21:53:19.192Z,9.90
2017-09-22T21:55:52.546Z,12.00
2017-09-22T21:58:25.245Z,8.97
2017-09-22T22:00:57.240Z,12.53
2017-09-22T22:03:33.659Z,9.77
2017-09-22T22:06:11.484Z,10.77
2017-09-22T22:08:48.346Z,9.93
2017-09-22T22:11:19.657Z,9.73
2017-09-22T22:13:50.939Z,9.50
2017-09-22T22:16:22.422Z,11.50
2017-09-22T22:18:53.482Z,10.50
2017-09-22T22:21:27.049Z,15.30
2017-09-22T22:24:08.068Z,13.50
2017-09-22T22:26:40.691Z,15.53
2017-09-22T22:29:31.564Z,14.57
2017-09-22T22:32:04.368Z,10.00
2017-09-22T22:34:36.514Z,10.23
2017-09-22T22:37:10.245Z,8.70
2017-09-22T22:39:41.388Z,8.43
2017-09-22T22:42:14.703Z,8.37
2017-09-22T22:44:49.021Z,9.60
2017-09-22T22:47:22.059Z,10.37
2017-09-22T22:49:54.791Z,10.30
2017-09-22T22:52:26.664Z,10.50
2017-09-22T22:54:58.943Z,12.40
2017-09-22T22:57:30.084Z,8.97
2017-09-22T23:00:02.769Z,11.30
2017-09-22T23:02:37.934Z,10.67
2017-09-22T23:05:10.984Z,10.70
2017-09-22T23:07:42.065Z,10.87
2017-09-22T23:10:13.653Z,9.27
2017-09-22T23:12:44.604Z,9.70
2017-09-22T23:15:16.411Z,10.40
2017-09-22T23:17:49.169Z,9.00
2017-09-22T23:20:19.705Z,9.70
2017-09-22T23:22:51.742Z,9.00
2017-09-22T23:25:23.278Z,10.20
2017-09-22T23:27:54.397Z,10.87
2017-09-22T23:30:25.381Z,9.33
2017-09-22T23:32:56.623Z,10.17
2017-09-22T23:35:27.323Z,10.60
2017-09-22T23:37:59.205Z,11.03
2017-09-22T23:40:29.752Z,11.63
2017-09-22T23:43:00.718Z,10.90
2017-09-22T23:45:31.490Z,11.03
2017-09-22T23:48:03.140Z,12.13
2017-09-22T23:50:34.299Z,12.13
2017-09-22T23:53:06.297Z,11.67
2017-09-22T23:55:36.255Z,11.10
2017-09-22T23:58:08.201Z,10.40
